AIRPORT ID: 6K5

DATE: 2024-05-27 ZULU TIME: 21.35 LOCAL TIME: 13.35


METAR K6K5 272135Z AUTO 00000KT 23/06 A3002

ALTIMETER: A3002 Q1017

DENSITY ALT: 4600 Ft

WIND DIRECT: 70

WIND SPEED: 3 Gust

WIND CONDITIONS:

VISIBILTY: Not Available

TEMPERATURE: 73 F 23 C

DEW POINT: 43 F 6 C

HUMID: 34%

LCL: Above 5,000 feet

RADIO CHECK: 0

ADVISARIES: 1

GREETINGS: 0

CONVERSATIONS: 0